Time;durP1;ratioP1;P1;durP2;ratioP2;P2;SDS_P1;SDS_P2;PMS_P1;PMS_P2;Temp;Humidity;BMP_temperature;BMP_pressure;BME280_temperature;BME280_humidity;BME280_pressure;Samples;Min_cycle;Max_cycle;Signal;HPM_P1;HPM_P2
2022/02/16 00:02:05;;;;;;;8.43;7.37;;;;;;;;;;5052423;28;20582;-72
2022/02/16 00:04:30;;;;;;;10.57;8.17;;;;;;;;;;5037982;28;20181;-72
2022/02/16 00:06:56;;;;;;;10.90;8.93;;;;;;;;;;5052253;28;20197;-72
2022/02/16 00:09:21;;;;;;;9.20;7.70;;;;;;;;;;5053584;28;20174;-72
2022/02/16 00:11:46;;;;;;;10.43;8.30;;;;;;;;;;5052685;28;20281;-72
2022/02/16 00:14:11;;;;;;;11.40;8.90;;;;;;;;;;5054158;28;20564;-72
2022/02/16 00:16:36;;;;;;;11.37;9.27;;;;;;;;;;5055557;28;20177;-72
2022/02/16 00:19:02;;;;;;;9.50;8.50;;;;;;;;;;5055483;28;20173;-73
2022/02/16 00:21:27;;;;;;;10.00;8.70;;;;;;;;;;5055573;28;20220;-72
2022/02/16 00:23:52;;;;;;;11.47;9.20;;;;;;;;;;5053620;28;20212;-73
2022/02/16 00:26:17;;;;;;;10.03;8.70;;;;;;;;;;5042721;28;20293;-74
2022/02/16 00:28:42;;;;;;;11.00;8.60;;;;;;;;;;5048597;28;20647;-73
2022/02/16 00:31:08;;;;;;;10.13;9.03;;;;;;;;;;5054918;28;20210;-73
2022/02/16 00:33:33;;;;;;;9.67;7.90;;;;;;;;;;5052621;28;20724;-72
2022/02/16 00:35:58;;;;;;;11.53;9.67;;;;;;;;;;5054869;28;20176;-72
2022/02/16 00:38:23;;;;;;;10.10;8.73;;;;;;;;;;5054330;28;20177;-73
2022/02/16 00:40:48;;;;;;;13.03;8.50;;;;;;;;;;5053838;28;20189;-73
2022/02/16 00:43:14;;;;;;;12.60;9.07;;;;;;;;;;5053334;28;20601;-73
2022/02/16 00:45:39;;;;;;;13.13;8.60;;;;;;;;;;5035732;28;20261;-72
2022/02/16 00:48:04;;;;;;;10.00;8.00;;;;;;;;;;5053917;28;20288;-73
2022/02/16 00:50:29;;;;;;;8.30;7.30;;;;;;;;;;5041563;28;20590;-72
2022/02/16 00:52:55;;;;;;;8.87;7.63;;;;;;;;;;5053398;28;20192;-72
2022/02/16 00:55:20;;;;;;;7.43;6.67;;;;;;;;;;5055687;28;20182;-72
2022/02/16 00:57:45;;;;;;;7.47;6.67;;;;;;;;;;5057629;28;20197;-72
2022/02/16 01:00:11;;;;;;;7.37;6.20;;;;;;;;;;5071005;28;20189;-72
2022/02/16 01:02:36;;;;;;;8.80;6.80;;;;;;;;;;5071947;28;20472;-72
2022/02/16 01:05:01;;;;;;;6.30;5.33;;;;;;;;;;5072108;28;20197;-72
2022/02/16 01:07:26;;;;;;;6.20;5.40;;;;;;;;;;5070187;28;20212;-71
2022/02/16 01:09:52;;;;;;;5.87;4.73;;;;;;;;;;5071469;28;20162;-72
2022/02/16 01:12:17;;;;;;;7.13;5.13;;;;;;;;;;5071702;28;20230;-71
2022/02/16 01:14:42;;;;;;;5.27;4.73;;;;;;;;;;5071577;28;20176;-71
2022/02/16 01:17:07;;;;;;;6.00;4.77;;;;;;;;;;5055257;28;20193;-72
2022/02/16 01:19:32;;;;;;;4.43;4.00;;;;;;;;;;5053519;28;20196;-72
2022/02/16 01:21:58;;;;;;;6.57;3.80;;;;;;;;;;5054026;28;20218;-73
2022/02/16 01:24:23;;;;;;;7.90;4.03;;;;;;;;;;5054080;28;20197;-72
2022/02/16 01:26:48;;;;;;;6.67;3.70;;;;;;;;;;5052799;28;20237;-72
2022/02/16 01:29:13;;;;;;;7.70;5.27;;;;;;;;;;5052803;28;20235;-72
2022/02/16 01:31:38;;;;;;;7.40;4.30;;;;;;;;;;5049705;28;20205;-73
2022/02/16 01:34:04;;;;;;;6.23;4.40;;;;;;;;;;5049160;28;20204;-72
2022/02/16 01:36:29;;;;;;;6.83;5.03;;;;;;;;;;5020817;28;20197;-73
2022/02/16 01:38:54;;;;;;;7.30;5.83;;;;;;;;;;5035008;28;20181;-73
2022/02/16 01:41:20;;;;;;;7.40;5.17;;;;;;;;;;5033354;28;20645;-74
2022/02/16 01:43:46;;;;;;;9.27;6.20;;;;;;;;;;5047915;28;20530;-71
2022/02/16 01:46:11;;;;;;;9.60;6.03;;;;;;;;;;5050489;28;20597;-73
2022/02/16 01:48:36;;;;;;;10.17;6.53;;;;;;;;;;5052131;28;20556;-72
2022/02/16 01:51:01;;;;;;;7.90;5.77;;;;;;;;;;5051807;28;20259;-72
2022/02/16 01:53:26;;;;;;;8.57;6.33;;;;;;;;;;5052536;28;20464;-72
2022/02/16 01:55:52;;;;;;;10.93;7.17;;;;;;;;;;5052289;28;20180;-72
2022/02/16 01:58:17;;;;;;;14.53;7.40;;;;;;;;;;5051380;28;20185;-72
2022/02/16 02:00:43;;;;;;;13.37;7.83;;;;;;;;;;5052793;28;20216;-72
2022/02/16 02:03:09;;;;;;;11.13;6.93;;;;;;;;;;5051344;28;20185;-72
2022/02/16 02:05:34;;;;;;;9.57;7.23;;;;;;;;;;5050283;28;20181;-71
2022/02/16 02:07:59;;;;;;;11.00;7.07;;;;;;;;;;5049008;28;20205;-72
2022/02/16 02:10:24;;;;;;;11.47;8.27;;;;;;;;;;5049686;28;20205;-71
2022/02/16 02:12:53;;;;;;;10.97;9.30;;;;;;;;;;5039700;28;20196;-72
2022/02/16 02:15:24;;;;;;;13.27;10.57;;;;;;;;;;5051389;28;20190;-72
2022/02/16 02:17:49;;;;;;;14.27;11.73;;;;;;;;;;5053295;28;20223;-72
2022/02/16 02:20:25;;;;;;;18.03;13.07;;;;;;;;;;5053321;28;20205;-72
2022/02/16 02:22:51;;;;;;;21.33;13.43;;;;;;;;;;5058620;22;20216;-71
2022/02/16 02:25:17;;;;;;;20.13;14.43;;;;;;;;;;5047710;28;20238;-70
2022/02/16 02:27:42;;;;;;;23.50;15.33;;;;;;;;;;5047973;28;20217;-70
2022/02/16 02:30:08;;;;;;;18.97;13.00;;;;;;;;;;5047817;28;20578;-71
2022/02/16 02:32:33;;;;;;;17.40;13.23;;;;;;;;;;5047674;28;20201;-71
2022/02/16 02:34:58;;;;;;;17.97;12.83;;;;;;;;;;5050545;28;20631;-71
2022/02/16 02:37:23;;;;;;;16.07;10.97;;;;;;;;;;5029600;28;20177;-71
2022/02/16 02:39:49;;;;;;;14.53;11.60;;;;;;;;;;5048339;28;20173;-71
2022/02/16 02:42:14;;;;;;;17.10;11.83;;;;;;;;;;5041952;28;20713;-70
2022/02/16 02:44:39;;;;;;;16.97;11.77;;;;;;;;;;5033729;28;20608;-70
2022/02/16 02:47:05;;;;;;;15.23;11.77;;;;;;;;;;5048742;28;20205;-71
2022/02/16 02:49:30;;;;;;;15.07;11.80;;;;;;;;;;5049311;28;20577;-71
2022/02/16 02:51:55;;;;;;;15.47;10.90;;;;;;;;;;5045358;28;20751;-71
2022/02/16 02:54:20;;;;;;;15.00;11.47;;;;;;;;;;5050329;28;20173;-71
2022/02/16 02:56:45;;;;;;;13.93;11.53;;;;;;;;;;5045626;28;20207;-70
2022/02/16 02:59:11;;;;;;;14.03;11.30;;;;;;;;;;5049600;28;20235;-70
2022/02/16 03:01:39;;;;;;;16.57;12.13;;;;;;;;;;5045689;28;20201;-70
2022/02/16 03:04:04;;;;;;;14.77;11.83;;;;;;;;;;5031061;28;20216;-70
2022/02/16 03:06:29;;;;;;;13.70;10.70;;;;;;;;;;5048955;28;20205;-69
2022/02/16 03:08:54;;;;;;;13.53;10.67;;;;;;;;;;5047525;28;20662;-71
2022/02/16 03:11:19;;;;;;;15.53;11.67;;;;;;;;;;5048507;28;20197;-71
2022/02/16 03:13:48;;;;;;;10.53;9.43;;;;;;;;;;5047691;28;20553;-71
2022/02/16 03:16:13;;;;;;;10.40;9.30;;;;;;;;;;5049191;28;20184;-71
2022/02/16 03:18:38;;;;;;;14.20;9.77;;;;;;;;;;5047843;28;20170;-70
2022/02/16 03:21:03;;;;;;;13.37;9.57;;;;;;;;;;5043140;28;20186;-71
2022/02/16 03:23:29;;;;;;;13.47;10.17;;;;;;;;;;5047458;28;20176;-71
2022/02/16 03:25:54;;;;;;;11.50;9.80;;;;;;;;;;5046395;28;20644;-69
2022/02/16 03:28:19;;;;;;;12.37;8.60;;;;;;;;;;5048050;28;20303;-71
2022/02/16 03:30:44;;;;;;;9.83;8.77;;;;;;;;;;5050876;28;20643;-71
2022/02/16 03:33:09;;;;;;;11.23;9.27;;;;;;;;;;5048138;28;20279;-70
2022/02/16 03:35:34;;;;;;;9.30;8.17;;;;;;;;;;5050473;28;20867;-72
2022/02/16 03:38:00;;;;;;;9.53;8.53;;;;;;;;;;5049409;28;20174;-71
2022/02/16 03:40:25;;;;;;;9.83;7.97;;;;;;;;;;5042158;28;20205;-71
2022/02/16 03:42:50;;;;;;;12.20;8.80;;;;;;;;;;5045840;28;20193;-71
2022/02/16 03:45:15;;;;;;;9.17;7.73;;;;;;;;;;5042947;28;20237;-71
2022/02/16 03:47:41;;;;;;;10.27;8.03;;;;;;;;;;5038208;28;20197;-71
2022/02/16 03:50:06;;;;;;;10.37;7.87;;;;;;;;;;5052087;28;20635;-71
2022/02/16 03:52:31;;;;;;;9.87;8.63;;;;;;;;;;5051633;28;20296;-70
2022/02/16 03:54:56;;;;;;;9.47;8.47;;;;;;;;;;5050819;28;20185;-70
2022/02/16 03:57:22;;;;;;;8.83;7.93;;;;;;;;;;5051017;28;20220;-70
2022/02/16 03:59:47;;;;;;;8.00;6.40;;;;;;;;;;5052238;28;20170;-70
2022/02/16 04:02:12;;;;;;;7.93;6.50;;;;;;;;;;5051300;28;20240;-71
2022/02/16 04:04:37;;;;;;;8.77;7.30;;;;;;;;;;5052318;28;20189;-69
2022/02/16 04:07:03;;;;;;;8.23;6.70;;;;;;;;;;5046236;28;20220;-71
2022/02/16 04:09:28;;;;;;;7.87;6.63;;;;;;;;;;5056808;28;20525;-70
2022/02/16 04:11:53;;;;;;;7.17;6.47;;;;;;;;;;5049302;28;20693;-70
2022/02/16 04:14:18;;;;;;;8.00;7.17;;;;;;;;;;5051076;28;20272;-70
2022/02/16 04:16:43;;;;;;;7.13;6.17;;;;;;;;;;5050644;28;20178;-71
2022/02/16 04:19:09;;;;;;;9.27;7.03;;;;;;;;;;5047109;28;20714;-70
2022/02/16 04:21:34;;;;;;;7.90;6.63;;;;;;;;;;5052249;28;20202;-70
2022/02/16 04:23:59;;;;;;;8.30;7.30;;;;;;;;;;5051790;28;20296;-70
2022/02/16 04:26:24;;;;;;;9.23;7.57;;;;;;;;;;5050198;28;20197;-70
2022/02/16 04:28:52;;;;;;;9.70;7.37;;;;;;;;;;5050543;28;20639;-71
2022/02/16 04:31:17;;;;;;;8.50;7.70;;;;;;;;;;5050260;28;20241;-69
2022/02/16 04:33:43;;;;;;;9.40;8.40;;;;;;;;;;5049208;28;20232;-68
2022/02/16 04:36:08;;;;;;;10.27;9.27;;;;;;;;;;5047299;28;20186;-68
2022/02/16 04:38:33;;;;;;;12.13;9.93;;;;;;;;;;5050550;28;20178;-68
2022/02/16 04:40:58;;;;;;;13.13;10.37;;;;;;;;;;5050190;28;20296;-69
2022/02/16 04:43:24;;;;;;;12.00;10.70;;;;;;;;;;5050481;28;20575;-71
2022/02/16 04:45:49;;;;;;;13.27;11.67;;;;;;;;;;5051366;28;20177;-71
2022/02/16 04:48:15;;;;;;;12.03;10.63;;;;;;;;;;5025078;28;20287;-70
2022/02/16 04:50:40;;;;;;;12.03;10.63;;;;;;;;;;5043803;28;20228;-71
2022/02/16 04:53:05;;;;;;;13.03;10.47;;;;;;;;;;5050849;28;20197;-71
2022/02/16 04:55:30;;;;;;;11.90;10.57;;;;;;;;;;5050698;28;20177;-71
2022/02/16 04:57:56;;;;;;;12.20;9.93;;;;;;;;;;5051415;28;20449;-71
2022/02/16 05:00:21;;;;;;;10.60;9.13;;;;;;;;;;5050446;28;20190;-71
2022/02/16 05:02:47;;;;;;;11.83;9.20;;;;;;;;;;5050696;28;20300;-70
2022/02/16 05:05:12;;;;;;;10.67;9.20;;;;;;;;;;5047168;28;20268;-70
2022/02/16 05:07:37;;;;;;;12.07;10.33;;;;;;;;;;5049768;28;20277;-71
2022/02/16 05:10:03;;;;;;;12.30;9.47;;;;;;;;;;5050862;28;20652;-71
2022/02/16 05:12:31;;;;;;;11.60;9.17;;;;;;;;;;5050103;28;20228;-71
2022/02/16 05:14:56;;;;;;;9.90;8.73;;;;;;;;;;5031533;28;20184;-71
2022/02/16 05:17:21;;;;;;;10.00;8.43;;;;;;;;;;5051584;28;20184;-70
2022/02/16 05:19:46;;;;;;;9.23;7.67;;;;;;;;;;5048662;28;20557;-71
2022/02/16 05:22:11;;;;;;;9.87;7.70;;;;;;;;;;5050229;28;20240;-71
2022/02/16 05:24:37;;;;;;;9.17;7.73;;;;;;;;;;5048740;28;20191;-71
2022/02/16 05:27:02;;;;;;;10.70;8.57;;;;;;;;;;5050613;28;20209;-70
2022/02/16 05:29:27;;;;;;;8.97;7.70;;;;;;;;;;5050467;28;20256;-71
2022/02/16 05:31:53;;;;;;;8.80;7.77;;;;;;;;;;5050592;28;20257;-71
2022/02/16 05:34:18;;;;;;;8.73;7.13;;;;;;;;;;5054199;28;20184;-71
2022/02/16 05:36:43;;;;;;;9.60;7.67;;;;;;;;;;5046409;28;20188;-72
2022/02/16 05:39:09;;;;;;;9.30;8.10;;;;;;;;;;5050712;28;20252;-72
2022/02/16 05:41:34;;;;;;;7.93;6.93;;;;;;;;;;5049056;28;20225;-70
2022/02/16 05:43:59;;;;;;;8.53;7.63;;;;;;;;;;5049874;28;20186;-72
2022/02/16 05:46:24;;;;;;;8.53;7.33;;;;;;;;;;5045402;28;20248;-71
2022/02/16 05:48:49;;;;;;;9.07;8.13;;;;;;;;;;5043650;28;20261;-72
2022/02/16 05:51:15;;;;;;;9.30;8.30;;;;;;;;;;5035290;28;20588;-70
2022/02/16 05:53:40;;;;;;;9.70;8.60;;;;;;;;;;5044866;28;20169;-71
2022/02/16 05:56:05;;;;;;;9.63;8.63;;;;;;;;;;5044838;28;20193;-71
2022/02/16 05:58:31;;;;;;;11.13;8.93;;;;;;;;;;5049927;28;20273;-71
2022/02/16 06:00:56;;;;;;;10.37;9.27;;;;;;;;;;5041460;28;20178;-71
2022/02/16 06:03:21;;;;;;;9.53;8.53;;;;;;;;;;5046150;28;20196;-72
2022/02/16 06:05:46;;;;;;;11.13;9.93;;;;;;;;;;5048418;28;20181;-71
2022/02/16 06:08:11;;;;;;;9.80;8.60;;;;;;;;;;5029733;28;20220;-71
2022/02/16 06:10:37;;;;;;;9.53;8.17;;;;;;;;;;5048790;28;20174;-72
2022/02/16 06:13:02;;;;;;;9.40;8.30;;;;;;;;;;5047560;28;20205;-71
2022/02/16 06:15:27;;;;;;;10.53;9.20;;;;;;;;;;5042979;28;20188;-72
2022/02/16 06:17:53;;;;;;;10.70;9.60;;;;;;;;;;5050024;28;20177;-71
2022/02/16 06:20:18;;;;;;;10.67;9.57;;;;;;;;;;5049628;28;20557;-71
2022/02/16 06:22:44;;;;;;;14.40;10.80;;;;;;;;;;5049385;28;20240;-71
2022/02/16 06:25:09;;;;;;;9.07;8.07;;;;;;;;;;5042649;28;20185;-71
2022/02/16 06:27:34;;;;;;;10.20;9.10;;;;;;;;;;5045319;28;20205;-71
2022/02/16 06:30:01;;;;;;;10.60;9.50;;;;;;;;;;5050936;28;20826;-73
2022/02/16 06:32:26;;;;;;;9.77;8.77;;;;;;;;;;5050846;28;21744;-72
2022/02/16 06:34:51;;;;;;;9.97;9.07;;;;;;;;;;5047699;28;20174;-73
2022/02/16 06:37:16;;;;;;;9.70;8.70;;;;;;;;;;5048175;28;20170;-72
2022/02/16 06:39:42;;;;;;;8.53;7.63;;;;;;;;;;5049791;28;20213;-73
2022/02/16 06:42:07;;;;;;;7.87;6.70;;;;;;;;;;5047193;28;20198;-72
2022/02/16 06:44:32;;;;;;;8.47;7.67;;;;;;;;;;5050381;28;20482;-71
2022/02/16 06:46:58;;;;;;;7.87;6.80;;;;;;;;;;5049624;28;20201;-73
2022/02/16 06:49:23;;;;;;;7.30;6.40;;;;;;;;;;5049601;28;20185;-72
2022/02/16 06:51:49;;;;;;;7.57;6.77;;;;;;;;;;5045678;28;20647;-72
2022/02/16 06:54:14;;;;;;;7.00;6.20;;;;;;;;;;5044229;28;20188;-72
2022/02/16 06:56:39;;;;;;;6.43;5.80;;;;;;;;;;5047879;28;20170;-71
2022/02/16 06:59:04;;;;;;;6.37;5.40;;;;;;;;;;5048402;28;20193;-72
2022/02/16 07:01:30;;;;;;;7.67;6.17;;;;;;;;;;5047156;28;20209;-71
2022/02/16 07:03:55;;;;;;;7.27;5.83;;;;;;;;;;5046407;28;20185;-72
2022/02/16 07:06:20;;;;;;;7.03;5.73;;;;;;;;;;5046390;28;20720;-72
2022/02/16 07:08:45;;;;;;;7.10;6.10;;;;;;;;;;5048600;28;20184;-72
2022/02/16 07:11:10;;;;;;;8.13;5.47;;;;;;;;;;5049065;28;20190;-72
2022/02/16 07:13:35;;;;;;;6.73;5.83;;;;;;;;;;5029218;28;20176;-74
2022/02/16 07:16:01;;;;;;;7.77;5.97;;;;;;;;;;5044506;28;20205;-71
2022/02/16 07:18:29;;;;;;;5.50;4.67;;;;;;;;;;5045331;28;20205;-72
2022/02/16 07:20:54;;;;;;;6.87;5.03;;;;;;;;;;5046747;28;20182;-71
2022/02/16 07:23:19;;;;;;;6.53;4.97;;;;;;;;;;5048137;28;20197;-70
2022/02/16 07:25:45;;;;;;;5.27;4.17;;;;;;;;;;5049865;28;20693;-72
2022/02/16 07:28:10;;;;;;;5.13;4.40;;;;;;;;;;5050538;28;20292;-71
2022/02/16 07:30:36;;;;;;;5.43;4.40;;;;;;;;;;5035791;28;20265;-71
2022/02/16 07:33:02;;;;;;;4.87;4.33;;;;;;;;;;5024209;28;20193;-71
2022/02/16 07:35:27;;;;;;;4.83;4.30;;;;;;;;;;5050906;28;20205;-71
2022/02/16 07:37:53;;;;;;;5.50;4.70;;;;;;;;;;5047030;28;20272;-71
2022/02/16 07:40:18;;;;;;;8.23;4.67;;;;;;;;;;5045730;28;20185;-70
2022/02/16 07:42:44;;;;;;;5.53;4.73;;;;;;;;;;5046516;28;20205;-71
2022/02/16 07:45:09;;;;;;;5.23;4.73;;;;;;;;;;5049915;28;20265;-71
2022/02/16 07:47:34;;;;;;;5.83;4.93;;;;;;;;;;5052390;28;20198;-71
2022/02/16 07:49:59;;;;;;;6.03;5.00;;;;;;;;;;5051983;28;20643;-71
2022/02/16 07:52:24;;;;;;;4.60;3.77;;;;;;;;;;5051735;28;20943;-72
2022/02/16 07:54:50;;;;;;;4.67;3.93;;;;;;;;;;5042107;28;20224;-71
2022/02/16 07:57:15;;;;;;;5.33;4.00;;;;;;;;;;5048488;28;20186;-71
2022/02/16 07:59:40;;;;;;;5.33;4.30;;;;;;;;;;5051104;28;20177;-71
2022/02/16 08:02:05;;;;;;;6.17;4.50;;;;;;;;;;5052153;28;20705;-72
2022/02/16 08:04:31;;;;;;;5.53;3.80;;;;;;;;;;5058035;28;20212;-71
2022/02/16 08:06:56;;;;;;;5.50;4.20;;;;;;;;;;5052261;28;20683;-70
2022/02/16 08:09:21;;;;;;;5.07;3.77;;;;;;;;;;5052144;28;20241;-71
2022/02/16 08:11:47;;;;;;;6.63;4.67;;;;;;;;;;5050603;28;20204;-70
2022/02/16 08:14:13;;;;;;;5.70;4.27;;;;;;;;;;5052208;28;20247;-72
2022/02/16 08:16:38;;;;;;;6.67;5.33;;;;;;;;;;5030995;28;20647;-71
2022/02/16 08:19:04;;;;;;;8.23;5.53;;;;;;;;;;5049365;28;20251;-71
2022/02/16 08:21:29;;;;;;;9.83;5.50;;;;;;;;;;5063305;22;20185;-68
2022/02/16 08:23:55;;;;;;;9.97;5.20;;;;;;;;;;5069439;28;20185;-70
2022/02/16 08:26:20;;;;;;;11.30;5.77;;;;;;;;;;5071585;28;20196;-68
2022/02/16 08:28:45;;;;;;;12.00;6.17;;;;;;;;;;5070293;28;20181;-68
2022/02/16 08:31:10;;;;;;;13.00;5.77;;;;;;;;;;5070316;28;20181;-68
2022/02/16 08:33:36;;;;;;;11.80;5.73;;;;;;;;;;5062585;28;20651;-68
2022/02/16 08:36:01;;;;;;;12.63;7.13;;;;;;;;;;5069890;28;20192;-68
2022/02/16 08:38:27;;;;;;;10.33;6.53;;;;;;;;;;5067615;28;20266;-68
2022/02/16 08:40:52;;;;;;;14.20;6.90;;;;;;;;;;5069430;28;20190;-68
2022/02/16 08:43:17;;;;;;;13.93;5.67;;;;;;;;;;5068140;28;20654;-69
2022/02/16 08:45:42;;;;;;;18.07;6.97;;;;;;;;;;5069427;28;20231;-68
2022/02/16 08:48:08;;;;;;;12.53;6.23;;;;;;;;;;5065369;28;20251;-69
2022/02/16 08:50:33;;;;;;;19.40;6.53;;;;;;;;;;5065642;28;20169;-68
2022/02/16 08:52:58;;;;;;;16.37;6.10;;;;;;;;;;5061667;28;20232;-68
2022/02/16 08:55:23;;;;;;;15.93;5.77;;;;;;;;;;5047418;28;20201;-68
2022/02/16 08:57:48;;;;;;;11.40;4.97;;;;;;;;;;5064695;28;20732;-69
2022/02/16 09:00:15;;;;;;;15.70;4.60;;;;;;;;;;5068208;28;20179;-69
2022/02/16 09:02:40;;;;;;;18.27;5.30;;;;;;;;;;5069208;28;20200;-69
2022/02/16 09:05:06;;;;;;;15.97;3.93;;;;;;;;;;5069747;28;20654;-69
2022/02/16 09:07:31;;;;;;;24.47;5.83;;;;;;;;;;5070078;28;20209;-68
2022/02/16 09:09:57;;;;;;;16.03;5.30;;;;;;;;;;5070234;28;20173;-69
2022/02/16 09:12:23;;;;;;;24.38;5.28;;;;;;;;;;5069096;28;20568;-68
2022/02/16 09:14:49;;;;;;;18.83;4.63;;;;;;;;;;5067903;28;20669;-69
2022/02/16 09:17:14;;;;;;;18.67;4.80;;;;;;;;;;5064699;28;20189;-67
2022/02/16 09:19:39;;;;;;;18.83;4.10;;;;;;;;;;5069634;28;20561;-68
2022/02/16 09:22:05;;;;;;;25.55;6.93;;;;;;;;;;5067976;28;20295;-69
2022/02/16 09:24:31;;;;;;;19.90;4.00;;;;;;;;;;5065234;28;20173;-69
2022/02/16 09:26:56;;;;;;;17.02;5.20;;;;;;;;;;5067931;28;20287;-69
2022/02/16 09:29:23;;;;;;;9.87;4.47;;;;;;;;;;5070907;28;20188;-68
2022/02/16 09:31:49;;;;;;;17.13;4.97;;;;;;;;;;5070514;28;20584;-68
2022/02/16 09:34:14;;;;;;;16.40;4.13;;;;;;;;;;5066403;28;20181;-69
2022/02/16 09:36:39;;;;;;;16.63;4.30;;;;;;;;;;5071706;28;20550;-69
2022/02/16 09:39:04;;;;;;;18.70;4.32;;;;;;;;;;5068353;28;20216;-69
2022/02/16 09:41:30;;;;;;;19.50;4.57;;;;;;;;;;5051803;28;20587;-69
2022/02/16 09:43:57;;;;;;;14.73;3.83;;;;;;;;;;5067037;28;20194;-69
2022/02/16 09:46:22;;;;;;;20.65;5.25;;;;;;;;;;5068945;28;20191;-69
2022/02/16 09:48:49;;;;;;;18.13;5.55;;;;;;;;;;5069841;28;20185;-69
2022/02/16 09:51:14;;;;;;;27.85;4.63;;;;;;;;;;5051318;28;20261;-69
2022/02/16 09:53:39;;;;;;;16.23;4.05;;;;;;;;;;5068848;28;20668;-68
2022/02/16 09:56:04;;;;;;;14.35;3.33;;;;;;;;;;5070314;28;20181;-68
2022/02/16 09:58:32;;;;;;;16.45;4.22;;;;;;;;;;5053863;28;20658;-68
2022/02/16 10:01:00;;;;;;;11.75;3.35;;;;;;;;;;5066791;28;20181;-68
2022/02/16 10:03:25;;;;;;;13.68;4.10;;;;;;;;;;5079151;28;20196;-67
2022/02/16 10:05:50;;;;;;;14.98;3.72;;;;;;;;;;5060589;28;20267;-68
2022/02/16 10:08:35;;;;;;;11.40;2.83;;;;;;;;;;5072617;28;20227;-69
2022/02/16 10:11:00;;;;;;;7.60;2.60;;;;;;;;;;5070310;28;20177;-68
2022/02/16 10:13:26;;;;;;;14.98;3.83;;;;;;;;;;5050498;28;20204;-69
2022/02/16 10:15:52;;;;;;;12.17;2.43;;;;;;;;;;5070068;28;20175;-68
2022/02/16 10:18:18;;;;;;;9.73;2.53;;;;;;;;;;5068470;28;20422;-68
2022/02/16 10:20:43;;;;;;;12.43;2.50;;;;;;;;;;5066415;28;20268;-69
2022/02/16 10:23:09;;;;;;;15.27;3.83;;;;;;;;;;5068420;28;20677;-69
2022/02/16 10:25:36;;;;;;;9.88;3.05;;;;;;;;;;5049730;28;20605;-68
2022/02/16 10:28:01;;;;;;;15.57;3.40;;;;;;;;;;5067685;28;20205;-68
2022/02/16 10:30:27;;;;;;;11.77;3.00;;;;;;;;;;5068051;28;20187;-68
2022/02/16 10:32:52;;;;;;;12.80;3.15;;;;;;;;;;5062952;28;20252;-69
2022/02/16 10:35:30;;;;;;;11.23;3.30;;;;;;;;;;5068438;28;20211;-69
2022/02/16 10:38:00;;;;;;;15.00;3.40;;;;;;;;;;5068078;28;20292;-68
2022/02/16 10:40:25;;;;;;;10.20;2.83;;;;;;;;;;5069255;28;20184;-68
2022/02/16 10:42:55;;;;;;;11.48;2.90;;;;;;;;;;5067874;28;20193;-69
2022/02/16 10:45:23;;;;;;;12.73;3.47;;;;;;;;;;5051224;28;20177;-68
2022/02/16 10:47:53;;;;;;;22.10;4.05;;;;;;;;;;5066954;28;20197;-69
2022/02/16 10:50:19;;;;;;;29.92;5.50;;;;;;;;;;5068147;28;20622;-68
2022/02/16 10:52:51;;;;;;;12.07;4.05;;;;;;;;;;5067796;28;20345;-68
2022/02/16 10:55:16;;;;;;;18.30;3.75;;;;;;;;;;5068004;28;20177;-69
2022/02/16 10:57:42;;;;;;;23.38;6.03;;;;;;;;;;5066870;28;20177;-68
2022/02/16 11:00:07;;;;;;;17.45;5.05;;;;;;;;;;5047993;28;20275;-69
2022/02/16 11:02:34;;;;;;;17.63;5.65;;;;;;;;;;5073963;28;20205;-68
2022/02/16 11:05:00;;;;;;;16.05;4.05;;;;;;;;;;5069743;28;20569;-70
2022/02/16 11:07:27;;;;;;;18.15;4.28;;;;;;;;;;5072984;28;20188;-69
2022/02/16 11:09:55;;;;;;;19.13;4.15;;;;;;;;;;5072665;28;20309;-67
2022/02/16 11:12:20;;;;;;;25.05;5.07;;;;;;;;;;5051627;28;20288;-69
2022/02/16 11:14:45;;;;;;;9.15;3.13;;;;;;;;;;5065946;28;20259;-68
2022/02/16 11:17:11;;;;;;;16.50;3.72;;;;;;;;;;5073470;28;20326;-69
2022/02/16 11:19:37;;;;;;;16.92;4.63;;;;;;;;;;5070813;28;22345;-69
2022/02/16 11:22:03;;;;;;;18.83;4.22;;;;;;;;;;5071256;28;20590;-69
2022/02/16 11:24:35;;;;;;;17.85;4.75;;;;;;;;;;5055034;28;20187;-68
2022/02/16 11:27:19;;;;;;;24.40;4.75;;;;;;;;;;5070149;28;20197;-68
2022/02/16 11:29:44;;;;;;;16.40;4.30;;;;;;;;;;5068539;28;20642;-68
2022/02/16 11:32:13;;;;;;;16.85;4.28;;;;;;;;;;5070924;28;20192;-69
2022/02/16 11:34:38;;;;;;;11.63;3.28;;;;;;;;;;5054898;28;20205;-68
2022/02/16 11:37:05;;;;;;;15.90;3.45;;;;;;;;;;5070191;28;20281;-69
2022/02/16 11:39:49;;;;;;;22.20;4.95;;;;;;;;;;5072143;28;20177;-68
2022/02/16 11:42:21;;;;;;;13.45;3.90;;;;;;;;;;5070806;28;20196;-69
2022/02/16 11:44:52;;;;;;;22.25;4.72;;;;;;;;;;5065416;28;20713;-69
2022/02/16 11:47:35;;;;;;;16.60;3.88;;;;;;;;;;5072431;28;20200;-68
2022/02/16 11:50:01;;;;;;;19.30;4.80;;;;;;;;;;5068831;28;20542;-68
2022/02/16 11:52:34;;;;;;;18.20;4.18;;;;;;;;;;5053250;28;20197;-68
2022/02/16 11:55:00;;;;;;;14.90;3.83;;;;;;;;;;5051181;28;20176;-68
2022/02/16 11:57:51;;;;;;;14.48;4.00;;;;;;;;;;5053205;28;20173;-68
2022/02/16 12:00:18;;;;;;;15.55;4.10;;;;;;;;;;5061009;28;20191;-69
2022/02/16 12:03:02;;;;;;;19.75;4.85;;;;;;;;;;5056909;28;20275;-69
2022/02/16 12:05:47;;;;;;;25.67;4.82;;;;;;;;;;5070238;28;20599;-69
2022/02/16 12:08:32;;;;;;;14.48;3.65;;;;;;;;;;5067719;28;20279;-68
2022/02/16 12:11:21;;;;;;;16.00;4.20;;;;;;;;;;5070355;28;20255;-68
2022/02/16 12:13:52;;;;;;;25.20;4.32;;;;;;;;;;5064165;28;20219;-69
2022/02/16 12:16:36;;;;;;;27.13;4.60;;;;;;;;;;5070476;28;20614;-69
2022/02/16 12:19:06;;;;;;;17.90;4.68;;;;;;;;;;5073076;28;20624;-69
2022/02/16 12:21:32;;;;;;;16.13;3.92;;;;;;;;;;5069512;28;20197;-69
2022/02/16 12:23:59;;;;;;;24.65;6.30;;;;;;;;;;5068223;28;20282;-69
2022/02/16 12:26:25;;;;;;;19.98;4.63;;;;;;;;;;5067304;28;20227;-68
2022/02/16 12:29:11;;;;;;;20.20;3.90;;;;;;;;;;5066395;28;20204;-68
2022/02/16 12:31:37;;;;;;;27.30;5.05;;;;;;;;;;5062357;28;20831;-69
2022/02/16 12:34:05;;;;;;;14.65;4.30;;;;;;;;;;5068406;28;20173;-67
2022/02/16 12:36:30;;;;;;;20.02;5.97;;;;;;;;;;5071326;28;20181;-68
2022/02/16 12:38:57;;;;;;;25.50;4.75;;;;;;;;;;5068698;28;20184;-69
2022/02/16 12:41:22;;;;;;;15.73;4.90;;;;;;;;;;5071072;28;20247;-68
2022/02/16 12:44:08;;;;;;;18.63;6.05;;;;;;;;;;5052701;28;20318;-68
2022/02/16 12:46:37;;;;;;;20.00;5.32;;;;;;;;;;5066399;28;20176;-68
2022/02/16 12:49:03;;;;;;;18.15;4.07;;;;;;;;;;5068597;28;20194;-68
2022/02/16 12:51:33;;;;;;;23.73;4.63;;;;;;;;;;5071594;28;20538;-68
2022/02/16 12:54:06;;;;;;;16.63;4.78;;;;;;;;;;5070680;28;20179;-68
2022/02/16 12:56:35;;;;;;;22.20;5.50;;;;;;;;;;5078793;28;20173;-69
2022/02/16 12:59:12;;;;;;;18.23;6.22;;;;;;;;;;5078794;28;20169;-68
2022/02/16 13:01:41;;;;;;;21.38;5.10;;;;;;;;;;5068766;28;20203;-68
2022/02/16 13:04:06;;;;;;;18.00;5.00;;;;;;;;;;5064084;28;20281;-68
2022/02/16 13:06:35;;;;;;;16.58;6.07;;;;;;;;;;5068291;28;20255;-68
2022/02/16 13:09:01;;;;;;;22.42;7.18;;;;;;;;;;5069777;28;20176;-68
2022/02/16 13:11:26;;;;;;;24.52;4.80;;;;;;;;;;5070138;28;20540;-68
2022/02/16 13:13:51;;;;;;;22.10;6.90;;;;;;;;;;5062860;28;20177;-69
2022/02/16 13:16:21;;;;;;;28.10;5.82;;;;;;;;;;5067218;28;20187;-69
2022/02/16 13:18:53;;;;;;;21.15;5.18;;;;;;;;;;5066668;28;20208;-69
2022/02/16 13:21:20;;;;;;;21.85;4.85;;;;;;;;;;5067906;28;20207;-68
2022/02/16 13:23:46;;;;;;;24.35;5.88;;;;;;;;;;5067020;28;20605;-69
2022/02/16 13:26:12;;;;;;;19.38;5.18;;;;;;;;;;5070456;28;20261;-69
2022/02/16 13:28:38;;;;;;;19.00;5.25;;;;;;;;;;5064535;28;20342;-69
2022/02/16 13:31:17;;;;;;;18.83;5.60;;;;;;;;;;5064809;28;20263;-69
2022/02/16 13:33:54;;;;;;;33.90;6.40;;;;;;;;;;5059579;28;20719;-69
2022/02/16 13:36:24;;;;;;;29.60;7.03;;;;;;;;;;5068215;28;20173;-69
2022/02/16 13:38:52;;;;;;;26.17;5.55;;;;;;;;;;5068624;28;20195;-68
2022/02/16 13:41:23;;;;;;;24.98;7.00;;;;;;;;;;5050111;28;20184;-69
2022/02/16 13:43:52;;;;;;;26.63;6.88;;;;;;;;;;5070795;28;20176;-69
2022/02/16 13:46:19;;;;;;;24.00;5.38;;;;;;;;;;5049095;28;20284;-68
2022/02/16 13:48:44;;;;;;;25.60;6.00;;;;;;;;;;5069576;28;20253;-68
2022/02/16 13:51:20;;;;;;;27.27;5.90;;;;;;;;;;5068541;28;20181;-68
2022/02/16 13:53:49;;;;;;;29.40;6.80;;;;;;;;;;5049745;28;20509;-68
2022/02/16 13:56:15;;;;;;;24.25;6.70;;;;;;;;;;5070261;28;20638;-68
2022/02/16 13:58:41;;;;;;;19.17;5.35;;;;;;;;;;5069824;28;20231;-67
2022/02/16 14:01:06;;;;;;;31.50;7.38;;;;;;;;;;5069216;28;20708;-68
2022/02/16 14:03:31;;;;;;;23.17;6.40;;;;;;;;;;5065262;28;20234;-69
2022/02/16 14:05:57;;;;;;;29.77;6.13;;;;;;;;;;5054270;28;20191;-69
2022/02/16 14:08:22;;;;;;;29.23;7.22;;;;;;;;;;5068979;28;20238;-68
2022/02/16 14:10:48;;;;;;;25.88;6.38;;;;;;;;;;5069451;28;20642;-69
2022/02/16 14:13:13;;;;;;;30.77;8.00;;;;;;;;;;5064993;28;20284;-69
2022/02/16 14:15:39;;;;;;;29.95;9.00;;;;;;;;;;5068857;28;20173;-69
2022/02/16 14:18:05;;;;;;;32.10;8.13;;;;;;;;;;5067981;28;20654;-69
2022/02/16 14:20:31;;;;;;;27.65;6.15;;;;;;;;;;5067936;28;20638;-69
2022/02/16 14:22:56;;;;;;;28.98;5.90;;;;;;;;;;5079850;22;20309;-71
2022/02/16 14:25:21;;;;;;;34.03;8.90;;;;;;;;;;5069047;28;20634;-72
2022/02/16 14:27:48;;;;;;;24.15;6.32;;;;;;;;;;5069325;28;20272;-71
2022/02/16 14:30:16;;;;;;;27.92;7.38;;;;;;;;;;5069359;28;20225;-70